Blumenau Airport


Codes: SSBL/BNU
Name: Blumenau Airport
City: Blumenau
Country: Brazil
Elevation: 60 ft.

Photos at Blumenau Airport


   Photos courtesy of SpottingLog. You can add your own sightings and photos by signing up for a free trial today.



No photos found.

Weather at Blumenau Airport


Time (UTC)DescriptionTempratureWindCloud coverageVisibilityPressureHumidity
25-Jun-2024 12:00Light Rain15°C2 mph, NE100%10000m1024hPa91%
25-Jun-2024 15:00Light Rain15°C2 mph, NE100%10000m1024hPa94%
25-Jun-2024 18:00Light Rain14°C0 mph, NE100%10000m1023hPa96%
25-Jun-2024 21:00Light Rain13°C0 mph, SW100%10000m1024hPa98%
26-Jun-2024 00:00Light Rain13°C0 mph, NE100%10000m1024hPa99%
26-Jun-2024 03:00Overcast Clouds13°C0 mph, NE100%10000m1023hPa99%
26-Jun-2024 06:00Light Rain13°C0 mph, W100%10000m1020hPa99%
26-Jun-2024 09:00Light Rain13°C2 mph, W100%3417m1018hPa99%
26-Jun-2024 12:00Light Rain15°C0 mph, W98%10000m1018hPa97%
26-Jun-2024 15:00Broken Clouds20°C2 mph, W69%10000m1015hPa77%
26-Jun-2024 18:00Overcast Clouds22°C4 mph, W87%10000m1012hPa73%
26-Jun-2024 21:00Overcast Clouds17°C4 mph, SW100%10000m1014hPa85%
27-Jun-2024 00:00Overcast Clouds17°C4 mph, SW100%10000m1016hPa79%
27-Jun-2024 03:00Overcast Clouds16°C2 mph, SW100%10000m1016hPa76%
27-Jun-2024 06:00Overcast Clouds12°C4 mph, SW95%10000m1017hPa88%
27-Jun-2024 09:00Broken Clouds10°C4 mph, SW52%10000m1017hPa90%
27-Jun-2024 12:00Scattered Clouds14°C2 mph, SW26%10000m1017hPa72%
27-Jun-2024 15:00Clear Sky19°C2 mph, SW0%10000m1016hPa46%
27-Jun-2024 18:00Clear Sky20°C2 mph, S0%10000m1014hPa42%
27-Jun-2024 21:00Clear Sky14°C0 mph, N4%10000m1015hPa74%
28-Jun-2024 00:00Scattered Clouds12°C2 mph, N31%10000m1016hPa90%
28-Jun-2024 03:00Scattered Clouds11°C2 mph, W41%10000m1015hPa97%
28-Jun-2024 06:00Broken Clouds12°C2 mph, W68%10000m1014hPa92%
28-Jun-2024 09:00Overcast Clouds10°C2 mph, W97%10000m1013hPa92%
28-Jun-2024 12:00Overcast Clouds14°C2 mph, W98%10000m1013hPa71%
28-Jun-2024 15:00Overcast Clouds17°C2 mph, W100%10000m1012hPa71%
28-Jun-2024 18:00Overcast Clouds19°C2 mph, SW100%10000m1011hPa66%
28-Jun-2024 21:00Overcast Clouds17°C2 mph, SW100%10000m1012hPa79%
29-Jun-2024 00:00Overcast Clouds16°C2 mph, SW94%10000m1014hPa85%
29-Jun-2024 03:00Light Rain16°C4 mph, SW100%10000m1014hPa96%
29-Jun-2024 06:00Light Rain16°C2 mph, SW93%10000m1014hPa99%
29-Jun-2024 09:00Light Rain16°C2 mph, NE99%7956m1014hPa100%
29-Jun-2024 12:00Moderate Rain16°C0 mph, NE100%7245m1017hPa99%
29-Jun-2024 15:00Moderate Rain15°C2 mph, E100%6150m1019hPa99%
29-Jun-2024 18:00Moderate Rain14°C2 mph, SW100%8966m1019hPa99%
29-Jun-2024 21:00Light Rain12°C0 mph, SW100%10000m1020hPa99%
30-Jun-2024 00:00Light Rain12°C0 mph, S100%10000m1022hPa99%
30-Jun-2024 03:00Overcast Clouds10°C2 mph, SW100%10000m1023hPa98%
30-Jun-2024 06:00Overcast Clouds6°C4 mph, SW99%10000m1024hPa96%
30-Jun-2024 09:00Overcast Clouds5°C2 mph, SW92%10000m1025hPa96%